Time;durP1;ratioP1;P1;durP2;ratioP2;P2;SDS_P1;SDS_P2;PMS_P1;PMS_P2;Temp;Humidity;BMP_temperature;BMP_pressure;BME280_temperature;BME280_humidity;BME280_pressure;Samples;Min_cycle;Max_cycle;Signal;HPM_P1;HPM_P2
2021/11/27 00:01:59;;;;;;;110.00;56.75;;;;;;;2.06;77.29;99233.59;1760096;80;21816;-77
2021/11/27 00:04:26;;;;;;;118.53;58.30;;;;;;;2.08;77.37;99230.64;1759985;80;21118;-78
2021/11/27 00:06:52;;;;;;;110.68;56.65;;;;;;;2.10;77.38;99227.28;1760263;80;21071;-78
2021/11/27 00:09:19;;;;;;;116.00;55.05;;;;;;;2.12;77.25;99224.72;1760354;80;21267;-79
2021/11/27 00:11:45;;;;;;;114.47;53.28;;;;;;;2.11;77.33;99217.77;1760271;80;21600;-78
2021/11/27 00:14:14;;;;;;;113.90;54.95;;;;;;;2.14;77.34;99216.59;1759798;80;21747;-77
2021/11/27 00:16:41;;;;;;;99.60;51.42;;;;;;;2.16;77.32;99214.02;1759853;80;21067;-77
2021/11/27 00:19:11;;;;;;;104.05;51.75;;;;;;;2.14;77.16;99215.30;1760118;80;21144;-77
2021/11/27 00:21:36;;;;;;;102.17;51.23;;;;;;;2.13;77.26;99212.22;1759829;80;21155;-77
2021/11/27 00:24:03;;;;;;;100.60;51.58;;;;;;;2.11;77.19;99209.56;1760001;80;21790;-78
2021/11/27 00:26:30;;;;;;;95.72;49.70;;;;;;;2.15;77.37;99202.77;1759886;80;21718;-78
2021/11/27 00:28:56;;;;;;;90.83;49.98;;;;;;;2.19;77.27;99205.05;1759947;80;21040;-78
2021/11/27 00:31:25;;;;;;;98.40;48.58;;;;;;;2.18;77.23;99200.67;1759909;80;21064;-78
2021/11/27 00:33:52;;;;;;;88.80;48.60;;;;;;;2.17;77.22;99195.03;1759579;80;21678;-77
2021/11/27 00:36:20;;;;;;;90.53;47.50;;;;;;;2.16;77.23;99194.16;1759824;80;21088;-78
2021/11/27 00:38:47;;;;;;;91.82;48.23;;;;;;;2.16;77.33;99194.16;1760068;80;21746;-78
2021/11/27 00:41:13;;;;;;;90.00;48.10;;;;;;;2.19;77.40;99191.64;1759697;80;21095;-78
2021/11/27 00:43:40;;;;;;;85.50;44.42;;;;;;;2.18;77.33;99193.80;1759911;80;21083;-78
2021/11/27 00:46:07;;;;;;;94.40;45.92;;;;;;;2.16;77.32;99190.66;1760026;80;21530;-77
2021/11/27 00:48:34;;;;;;;88.92;45.92;;;;;;;2.16;77.38;99194.55;1759586;80;21079;-78
2021/11/27 00:51:11;;;;;;;86.90;45.08;;;;;;;2.16;77.38;99194.55;1759550;80;22571;-78
2021/11/27 00:53:38;;;;;;;85.92;46.60;;;;;;;2.17;77.45;99188.55;1758687;79;21135;-79
2021/11/27 00:56:05;;;;;;;91.63;46.18;;;;;;;2.19;77.43;99184.28;1759587;80;21629;-82
2021/11/27 00:58:34;;;;;;;84.92;46.23;;;;;;;2.22;77.50;99184.40;1759845;80;21692;-78
2021/11/27 01:01:04;;;;;;;90.45;45.30;;;;;;;2.20;77.34;99184.77;1759600;80;21515;-78
2021/11/27 01:03:35;;;;;;;89.75;47.48;;;;;;;2.19;77.39;99179.09;1759777;80;21783;-79
2021/11/27 01:06:04;;;;;;;81.92;43.87;;;;;;;2.19;77.46;99186.45;1759372;80;21139;-79
2021/11/27 01:08:33;;;;;;;82.12;44.03;;;;;;;2.18;77.41;99188.60;1759994;80;21060;-79
2021/11/27 01:11:17;;;;;;;81.28;44.90;;;;;;;2.17;77.38;99181.63;1759766;80;21248;-78
2021/11/27 01:13:44;;;;;;;86.20;46.73;;;;;;;2.18;77.47;99173.42;1760336;80;21060;-78
2021/11/27 01:16:11;;;;;;;86.05;45.45;;;;;;;2.15;77.39;99171.62;1760083;80;21604;-78
2021/11/27 01:18:38;;;;;;;96.75;52.67;;;;;;;2.10;77.40;99169.27;1759913;80;21059;-78
2021/11/27 01:21:09;;;;;;;89.85;48.25;;;;;;;2.11;77.54;99171.05;1759967;80;21095;-79
2021/11/27 01:23:37;;;;;;;98.75;52.17;;;;;;;2.10;77.55;99168.88;1760007;80;21056;-79
2021/11/27 01:26:04;;;;;;;229.65;92.65;;;;;;;2.10;77.60;99167.59;1760068;80;21071;-79
2021/11/27 01:28:31;;;;;;;139.25;66.55;;;;;;;2.12;77.67;99162.03;1759846;80;21726;-79
2021/11/27 01:30:58;;;;;;;110.00;57.27;;;;;;;2.14;77.73;99160.36;1759746;80;21044;-79
2021/11/27 01:33:26;;;;;;;102.67;54.35;;;;;;;2.15;77.61;99163.83;1759711;80;21048;-79
2021/11/27 01:35:53;;;;;;;86.00;49.63;;;;;;;2.12;77.66;99164.63;1759813;80;21627;-79
2021/11/27 01:38:19;;;;;;;92.17;50.92;;;;;;;2.10;77.63;99162.78;1759930;80;21079;-79
2021/11/27 01:40:47;;;;;;;92.08;48.63;;;;;;;2.08;77.68;99157.57;1759777;80;21747;-79
2021/11/27 01:43:13;;;;;;;83.20;46.53;;;;;;;2.08;77.84;99161.86;1759765;80;21056;-79
2021/11/27 01:45:40;;;;;;;86.95;48.48;;;;;;;2.10;77.88;99161.09;1759662;80;21044;-78
2021/11/27 01:48:10;;;;;;;82.47;47.23;;;;;;;2.09;77.89;99155.42;1759859;80;21055;-78
2021/11/27 01:50:43;;;;;;;84.72;47.90;;;;;;;2.12;77.97;99150.34;1760011;80;21134;-78
2021/11/27 01:53:10;;;;;;;96.35;47.03;;;;;;;2.17;78.04;99147.88;1760192;80;22615;-79
2021/11/27 01:55:36;;;;;;;86.08;47.45;;;;;;;2.19;78.06;99150.11;1766617;80;21645;-79
2021/11/27 01:58:03;;;;;;;85.12;47.67;;;;;;;2.21;77.96;99142.38;1769791;80;22259;-79
2021/11/27 02:00:32;;;;;;;83.00;47.73;;;;;;;2.22;77.98;99137.67;1769792;80;21179;-80
2021/11/27 02:02:59;;;;;;;83.47;46.30;;;;;;;2.25;78.07;99139.95;1769903;80;21071;-80
2021/11/27 02:05:29;;;;;;;82.40;48.13;;;;;;;2.28;78.07;99137.43;1769979;80;21748;-80
2021/11/27 02:07:54;;;;;;;93.45;48.50;;;;;;;2.30;77.98;99133.16;1768873;80;21029;-80
2021/11/27 02:10:21;;;;;;;81.97;47.03;;;;;;;2.31;78.00;99133.65;1769709;80;21038;-80
2021/11/27 02:12:47;;;;;;;80.00;46.23;;;;;;;2.34;78.05;99133.72;1769697;80;21676;-80
2021/11/27 02:15:16;;;;;;;81.67;46.48;;;;;;;2.36;77.96;99136.38;1768525;80;21061;-80
2021/11/27 02:17:43;;;;;;;88.60;49.88;;;;;;;2.39;78.03;99131.72;1769676;80;21763;-80
2021/11/27 02:20:10;;;;;;;88.60;50.83;;;;;;;2.44;77.96;99129.73;1769777;80;21056;-80
2021/11/27 02:22:37;;;;;;;92.95;50.25;;;;;;;2.45;77.81;99133.20;1769735;80;21077;-81
2021/11/27 02:25:11;;;;;;;88.82;48.95;;;;;;;2.48;77.79;99129.41;1769765;81;21096;-80
2021/11/27 02:27:38;;;;;;;87.00;48.40;;;;;;;2.47;77.67;99125.91;1769536;80;21088;-79
2021/11/27 02:30:05;;;;;;;84.17;47.78;;;;;;;2.48;77.68;99134.60;1769758;80;21801;-80
2021/11/27 02:32:32;;;;;;;88.92;48.83;;;;;;;2.48;77.71;99128.11;1769666;80;21060;-80
2021/11/27 02:34:59;;;;;;;79.07;48.10;;;;;;;2.47;77.63;99129.80;1769576;80;21116;-80
2021/11/27 02:37:25;;;;;;;87.47;46.15;;;;;;;2.46;77.60;99128.45;1769561;80;21054;-80
2021/11/27 02:39:52;;;;;;;82.72;44.53;;;;;;;2.43;77.62;99121.45;1769463;80;21547;-80
2021/11/27 02:42:19;;;;;;;78.92;43.78;;;;;;;2.40;77.60;99118.75;1769503;80;22598;-79
2021/11/27 02:44:45;;;;;;;74.50;42.30;;;;;;;2.40;77.61;99124.37;1769448;80;21052;-79
2021/11/27 02:47:12;;;;;;;77.92;42.98;;;;;;;2.36;77.57;99116.91;1769575;80;21072;-79
2021/11/27 02:49:39;;;;;;;76.10;41.73;;;;;;;2.36;77.64;99119.92;1769587;80;21084;-80
2021/11/27 02:52:06;;;;;;;75.75;40.73;;;;;;;2.36;77.65;99119.50;1769721;80;21131;-80
2021/11/27 02:54:33;;;;;;;77.35;43.10;;;;;;;2.40;77.76;99120.48;1770036;80;22626;-80
2021/11/27 02:57:00;;;;;;;77.95;40.55;;;;;;;2.40;77.69;99122.64;1746372;80;21040;-80
2021/11/27 02:59:28;;;;;;;73.12;41.28;;;;;;;2.44;77.78;99119.34;1772475;80;21072;-80
2021/11/27 03:01:56;;;;;;;75.37;41.53;;;;;;;2.45;77.75;99117.19;1772470;80;21664;-80
2021/11/27 03:04:31;;;;;;;78.95;41.37;;;;;;;2.48;77.74;99118.59;1772532;80;21586;-80
2021/11/27 03:06:57;;;;;;;85.47;43.73;;;;;;;2.50;77.69;99118.64;1772096;80;21724;-80
2021/11/27 03:09:23;;;;;;;91.02;44.58;;;;;;;2.52;77.72;99123.47;1772534;80;21103;-80
2021/11/27 03:11:52;;;;;;;82.65;42.80;;;;;;;2.56;77.69;99117.95;1772715;80;21169;-80
2021/11/27 03:14:21;;;;;;;70.00;39.90;;;;;;;2.59;77.71;99119.33;1772589;80;21093;-79
2021/11/27 03:16:47;;;;;;;67.67;39.60;;;;;;;2.61;77.66;99117.26;1772727;80;21759;-78
2021/11/27 03:19:14;;;;;;;67.20;39.55;;;;;;;2.64;77.66;99116.03;1772700;80;21758;-79
2021/11/27 03:21:41;;;;;;;69.30;40.20;;;;;;;2.63;77.55;99117.31;1772631;80;21076;-78
2021/11/27 03:24:11;;;;;;;76.90;40.60;;;;;;;2.63;77.62;99110.81;1773024;80;21060;-78
2021/11/27 03:26:36;;;;;;;75.47;38.33;;;;;;;2.65;77.66;99112.61;1771910;80;21096;-78
2021/11/27 03:29:03;;;;;;;72.25;40.12;;;;;;;2.68;77.58;99115.31;1772542;80;20984;-80
2021/11/27 03:31:29;;;;;;;75.22;39.95;;;;;;;2.68;77.50;99117.01;1772558;80;21976;-79
2021/11/27 03:33:56;;;;;;;72.05;38.25;;;;;;;2.66;77.55;99123.45;1772778;80;21619;-78
2021/11/27 03:36:24;;;;;;;80.17;40.28;;;;;;;2.67;77.48;99117.86;1772397;80;21131;-78
2021/11/27 03:38:51;;;;;;;75.70;39.48;;;;;;;2.71;77.64;99125.78;1772551;80;21346;-78
2021/11/27 03:41:18;;;;;;;74.65;41.15;;;;;;;2.75;77.65;99121.56;1771983;80;21593;-78
2021/11/27 03:43:47;;;;;;;72.05;39.78;;;;;;;2.77;77.54;99121.19;1772486;80;21745;-78
2021/11/27 03:46:14;;;;;;;76.50;40.60;;;;;;;2.81;77.69;99119.56;1772512;80;21061;-77
2021/11/27 03:49:03;;;;;;;80.80;42.50;;;;;;;2.85;77.58;99122.71;1772376;80;21142;-79
2021/11/27 03:51:30;;;;;;;85.05;42.95;;;;;;;2.86;77.66;99120.16;1648493;85;21320;-79
2021/11/27 03:53:57;;;;;;;84.05;44.70;;;;;;;2.90;77.62;99122.01;1648986;85;21141;-76
2021/11/27 03:56:27;;;;;;;91.42;47.98;;;;;;;2.92;77.60;99116.44;1648790;86;21747;-76
2021/11/27 03:58:54;;;;;;;91.10;47.83;;;;;;;2.96;77.70;99116.53;1648345;85;21101;-78
2021/11/27 04:01:22;;;;;;;77.20;43.65;;;;;;;3.00;77.69;99122.28;1648542;85;21736;-77
2021/11/27 04:03:49;;;;;;;74.60;41.63;;;;;;;3.01;77.71;99118.43;1648623;85;21136;-76
2021/11/27 04:06:17;;;;;;;66.62;40.08;;;;;;;3.03;77.63;99121.95;1648661;86;21772;-76
2021/11/27 04:08:43;;;;;;;71.97;40.35;;;;;;;3.04;77.69;99117.23;1648620;85;21988;-76
2021/11/27 04:11:10;;;;;;;69.30;39.05;;;;;;;3.06;77.67;99119.84;1648507;86;21595;-77
2021/11/27 04:13:37;;;;;;;66.57;37.67;;;;;;;3.04;77.57;99115.03;1648797;86;21383;-77
2021/11/27 04:16:04;;;;;;;72.50;39.03;;;;;;;3.02;77.56;99111.50;1667160;85;21129;-76
2021/11/27 04:18:43;;;;;;;67.50;38.20;;;;;;;2.98;77.55;99113.56;1680336;85;21109;-77
2021/11/27 04:21:11;;;;;;;64.42;36.68;;;;;;;2.98;77.65;99113.13;1679618;84;21132;-76
2021/11/27 04:23:38;;;;;;;63.80;37.48;;;;;;;2.97;77.57;99120.91;1679994;84;21142;-76
2021/11/27 04:26:05;;;;;;;63.92;36.60;;;;;;;2.96;77.60;99116.11;1679723;85;21086;-76
2021/11/27 04:28:31;;;;;;;63.55;36.15;;;;;;;2.94;77.60;99116.91;1679570;85;21799;-76
2021/11/27 04:30:58;;;;;;;67.08;38.28;;;;;;;2.94;77.65;99119.51;1679711;85;21094;-78
2021/11/27 04:33:25;;;;;;;67.03;35.55;;;;;;;2.95;77.75;99123.46;1679722;85;23291;-77
2021/11/27 04:35:51;;;;;;;66.45;36.65;;;;;;;2.98;77.72;99126.55;1679820;85;21107;-77
2021/11/27 04:38:18;;;;;;;64.70;35.63;;;;;;;2.97;77.71;99125.68;1651409;86;21634;-77
2021/11/27 04:40:45;;;;;;;71.75;36.60;;;;;;;2.96;77.72;99120.44;1680018;84;21127;-77
2021/11/27 04:43:11;;;;;;;63.08;34.92;;;;;;;2.94;77.69;99122.11;1679816;85;21113;-78
2021/11/27 04:45:38;;;;;;;57.20;36.10;;;;;;;2.92;77.77;99119.03;1679585;85;21841;-79
2021/11/27 04:48:05;;;;;;;59.33;34.78;;;;;;;2.95;77.79;99125.16;1680089;85;21094;-79
2021/11/27 04:50:32;;;;;;;62.65;36.00;;;;;;;2.95;77.80;99127.36;1680361;84;21094;-78
2021/11/27 04:52:58;;;;;;;61.28;34.63;;;;;;;2.95;77.74;99118.27;1680983;85;21278;-79
2021/11/27 04:55:25;;;;;;;58.15;34.90;;;;;;;2.93;77.80;99118.64;1681183;85;21035;-78
2021/11/27 04:57:52;;;;;;;63.38;37.17;;;;;;;2.97;77.89;99117.02;1681162;85;21714;-78
2021/11/27 05:00:23;;;;;;;58.10;35.45;;;;;;;2.95;77.85;99119.56;1680542;85;21225;-78
2021/11/27 05:02:50;;;;;;;65.83;36.45;;;;;;;2.97;77.87;99118.31;1681049;85;21098;-78
2021/11/27 05:05:16;;;;;;;59.83;35.33;;;;;;;2.97;77.83;99118.31;1681061;85;21086;-78
2021/11/27 05:07:44;;;;;;;62.40;35.30;;;;;;;2.95;77.84;99122.16;1680849;85;21090;-78
2021/11/27 05:10:11;;;;;;;68.02;37.73;;;;;;;2.96;77.93;99119.13;1680927;85;21828;-77
2021/11/27 05:12:37;;;;;;;59.90;36.40;;;;;;;2.98;77.97;99123.53;1680691;85;21563;-77
2021/11/27 05:15:06;;;;;;;72.27;37.35;;;;;;;2.98;77.96;99118.33;1680583;85;21074;-76
2021/11/27 05:17:33;;;;;;;66.05;38.25;;;;;;;2.96;77.88;99113.94;1680496;85;21074;-77
2021/11/27 05:20:00;;;;;;;63.55;36.15;;;;;;;2.94;77.80;99121.69;1680473;85;21098;-77
2021/11/27 05:22:27;;;;;;;67.78;37.30;;;;;;;2.93;77.85;99123.84;1680652;85;21792;-76
2021/11/27 05:24:54;;;;;;;64.50;35.88;;;;;;;2.92;77.88;99129.42;1680743;85;21672;-78
2021/11/27 05:27:20;;;;;;;61.15;36.58;;;;;;;2.91;77.95;99132.88;1680658;85;21114;-76
2021/11/27 05:29:48;;;;;;;64.37;36.42;;;;;;;2.90;77.92;99132.83;1680602;85;21071;-76
2021/11/27 05:32:37;;;;;;;63.08;36.70;;;;;;;2.89;77.97;99132.35;1680735;85;21098;-77
2021/11/27 05:34:50;;;;;;;62.17;34.40;;;;;;;2.86;77.98;99134.45;1678002;85;22503;-77
2021/11/27 05:37:17;;;;;;;63.10;37.00;;;;;;;2.86;78.01;99134.45;1680899;85;22397;-77
2021/11/27 05:39:44;;;;;;;62.83;36.80;;;;;;;2.84;78.08;99138.73;1681057;85;21110;-75
2021/11/27 05:42:11;;;;;;;61.75;35.50;;;;;;;2.85;78.10;99127.91;1680889;85;21020;-75
2021/11/27 05:44:38;;;;;;;67.20;35.92;;;;;;;2.86;78.21;99123.19;1681150;85;21572;-75
2021/11/27 05:47:05;;;;;;;61.28;36.40;;;;;;;2.86;78.19;99131.86;1681056;85;22446;-75
2021/11/27 05:49:34;;;;;;;58.80;34.05;;;;;;;2.86;78.19;99127.95;1653084;85;21486;-75
2021/11/27 05:52:03;;;;;;;70.62;37.63;;;;;;;2.88;78.27;99130.61;1677743;84;21067;-75
2021/11/27 05:54:29;;;;;;;62.45;35.80;;;;;;;2.90;78.23;99129.80;1650620;86;21565;-76
2021/11/27 05:56:56;;;;;;;59.53;35.78;;;;;;;2.91;78.19;99141.11;1678481;85;21094;-78
2021/11/27 05:59:24;;;;;;;59.20;36.13;;;;;;;2.90;78.29;99141.50;1678168;85;21764;-76
2021/11/27 06:01:53;;;;;;;59.20;36.03;;;;;;;2.92;78.32;99146.32;1648677;85;21043;-76
2021/11/27 06:04:19;;;;;;;63.48;35.85;;;;;;;2.94;78.28;99144.20;1677897;85;21158;-76
2021/11/27 06:06:46;;;;;;;69.53;37.95;;;;;;;2.94;78.29;99149.40;1677627;85;21576;-76
2021/11/27 06:09:18;;;;;;;59.50;36.68;;;;;;;2.91;78.27;99140.68;1677929;85;21086;-76
2021/11/27 06:11:49;;;;;;;67.03;36.73;;;;;;;2.93;78.32;99145.93;1677420;85;22609;-75
2021/11/27 06:14:16;;;;;;;64.92;35.70;;;;;;;2.91;78.25;99135.48;1690059;82;21532;-75
2021/11/27 06:16:48;;;;;;;62.73;35.40;;;;;;;2.92;78.31;99138.95;1680675;84;21097;-76
2021/11/27 06:19:14;;;;;;;61.40;36.42;;;;;;;2.91;78.27;99141.11;1672054;84;21074;-75
2021/11/27 06:21:40;;;;;;;63.02;36.35;;;;;;;2.88;78.24;99135.38;1675111;85;21614;-76
2021/11/27 06:24:08;;;;;;;65.47;37.28;;;;;;;2.84;78.31;99136.12;1673826;85;21756;-76
2021/11/27 06:26:35;;;;;;;63.40;37.15;;;;;;;2.87;78.47;99141.43;1674073;85;21093;-76
2021/11/27 06:29:02;;;;;;;66.75;35.83;;;;;;;2.95;78.62;99149.84;1673436;85;21687;-76
2021/11/27 06:31:29;;;;;;;62.53;35.17;;;;;;;2.98;78.53;99146.92;1675043;85;21058;-75
2021/11/27 06:33:55;;;;;;;57.60;34.25;;;;;;;2.99;78.50;99149.13;1673183;85;21495;-77
2021/11/27 06:36:25;;;;;;;58.00;33.33;;;;;;;2.97;78.43;99144.30;1673463;85;21769;-76
2021/11/27 06:38:51;;;;;;;60.17;36.25;;;;;;;2.98;78.41;99149.95;1673344;85;21054;-76
2021/11/27 06:41:17;;;;;;;64.20;36.35;;;;;;;2.98;78.36;99158.62;1673623;85;21152;-76
2021/11/27 06:43:45;;;;;;;57.80;33.60;;;;;;;2.96;78.39;99153.80;1673437;85;21140;-76
2021/11/27 06:46:11;;;;;;;58.48;35.58;;;;;;;2.91;78.23;99154.97;1673660;85;21089;-76
2021/11/27 06:48:40;;;;;;;57.05;33.25;;;;;;;2.84;78.29;99154.75;1669754;85;22670;-75
2021/11/27 06:51:06;;;;;;;56.30;32.28;;;;;;;2.85;78.40;99153.89;1675195;84;21077;-75
2021/11/27 06:53:35;;;;;;;53.23;30.88;;;;;;;2.85;78.48;99157.40;1673498;85;21598;-76
2021/11/27 06:56:03;;;;;;;49.08;28.83;;;;;;;2.82;78.38;99159.89;1676201;84;21081;-75
2021/11/27 06:58:29;;;;;;;49.38;28.05;;;;;;;2.83;78.56;99165.96;1695619;84;21030;-75
2021/11/27 07:00:56;;;;;;;41.95;23.87;;;;;;;2.87;78.78;99168.72;1667794;83;22595;-75
2021/11/27 07:03:26;;;;;;;35.78;20.25;;;;;;;2.94;78.93;99173.66;1626215;88;21185;-75
2021/11/27 07:05:51;;;;;;;32.00;20.30;;;;;;;2.95;78.61;99171.54;1625697;87;21124;-75
2021/11/27 07:08:18;;;;;;;36.63;20.55;;;;;;;2.95;78.58;99173.23;1625951;88;21558;-76
2021/11/27 07:10:45;;;;;;;34.75;21.00;;;;;;;2.92;78.43;99179.23;1626097;88;21175;-75
2021/11/27 07:13:12;;;;;;;32.38;18.67;;;;;;;2.92;78.61;99181.83;1626278;88;21734;-75
2021/11/27 07:15:39;;;;;;;36.13;19.10;;;;;;;2.96;78.65;99187.58;1626142;88;21490;-75
2021/11/27 07:18:05;;;;;;;36.38;22.07;;;;;;;2.98;78.60;99183.31;1626037;88;21088;-75
2021/11/27 07:20:33;;;;;;;40.73;24.00;;;;;;;2.98;78.53;99189.81;1625769;88;21177;-75
2021/11/27 07:23:02;;;;;;;48.10;26.00;;;;;;;3.00;78.71;99185.96;1625438;88;21108;-74
2021/11/27 07:25:30;;;;;;;45.80;27.02;;;;;;;3.02;78.59;99190.39;1652396;86;21799;-74
2021/11/27 07:27:57;;;;;;;45.88;25.37;;;;;;;3.10;78.79;99186.72;1627678;86;21112;-75
2021/11/27 07:30:24;;;;;;;45.88;26.40;;;;;;;3.13;78.56;99190.69;1652490;86;21100;-75
2021/11/27 07:32:58;;;;;;;39.30;24.18;;;;;;;3.14;78.58;99191.16;1665702;84;21159;-84
2021/11/27 07:35:24;;;;;;;36.50;21.97;;;;;;;3.15;78.49;99190.73;1678449;85;21129;-81
2021/11/27 07:37:51;;;;;;;34.67;19.62;;;;;;;3.17;78.50;99187.33;1680190;85;21251;-76
2021/11/27 07:40:17;;;;;;;28.98;18.12;;;;;;;3.19;78.44;99192.19;1679927;85;21100;-75
2021/11/27 07:42:44;;;;;;;24.27;15.10;;;;;;;3.18;78.37;99198.64;1679980;85;21157;-75
2021/11/27 07:45:11;;;;;;;26.12;15.20;;;;;;;3.17;78.29;99199.03;1680280;85;21558;-75
2021/11/27 07:47:37;;;;;;;28.23;17.23;;;;;;;3.15;78.25;99201.14;1680124;85;21084;-75
2021/11/27 07:50:05;;;;;;;34.67;18.85;;;;;;;3.13;78.33;99202.38;1680198;85;21752;-75
2021/11/27 07:52:32;;;;;;;31.07;18.48;;;;;;;3.16;78.43;99195.11;1672673;84;21737;-75
2021/11/27 07:54:58;;;;;;;38.73;21.65;;;;;;;3.18;78.47;99198.64;1672344;85;21144;-75
2021/11/27 07:57:25;;;;;;;34.67;20.35;;;;;;;3.19;78.50;99192.19;1672211;85;21653;-75
2021/11/27 07:59:52;;;;;;;35.65;19.67;;;;;;;3.19;78.48;99192.19;1641660;86;22438;-75
2021/11/27 08:02:18;;;;;;;33.15;17.82;;;;;;;3.22;78.61;99190.95;1659624;86;21758;-75
2021/11/27 08:04:45;;;;;;;34.05;18.73;;;;;;;3.27;78.69;99201.08;1655857;85;21105;-75
2021/11/27 08:07:11;;;;;;;35.75;19.42;;;;;;;3.32;78.62;99205.10;1650470;86;21164;-76
2021/11/27 08:09:38;;;;;;;30.88;18.05;;;;;;;3.37;78.58;99211.33;1650307;86;21164;-76
2021/11/27 08:12:06;;;;;;;30.88;18.73;;;;;;;3.40;78.69;99215.33;1650448;86;21089;-77
2021/11/27 08:14:32;;;;;;;36.10;19.42;;;;;;;3.44;78.61;99211.97;1625725;86;21822;-78
2021/11/27 08:17:00;;;;;;;33.55;20.25;;;;;;;3.48;78.63;99211.64;1650564;86;21097;-75
2021/11/27 08:19:28;;;;;;;40.65;21.65;;;;;;;3.55;78.77;99216.19;1650604;86;21630;-75
2021/11/27 08:21:55;;;;;;;34.03;20.55;;;;;;;3.62;78.65;99218.52;1626303;86;21065;-75
2021/11/27 08:24:22;;;;;;;42.15;23.45;;;;;;;3.68;78.71;99216.12;1650661;86;21157;-76
2021/11/27 08:26:48;;;;;;;41.45;22.13;;;;;;;3.74;78.70;99217.58;1651432;86;21818;-75
2021/11/27 08:29:15;;;;;;;39.33;20.45;;;;;;;3.82;78.66;99218.66;1652030;86;21579;-75
2021/11/27 08:31:42;;;;;;;38.30;22.45;;;;;;;3.85;78.62;99212.68;1651653;86;21116;-76
2021/11/27 08:34:08;;;;;;;45.92;26.48;;;;;;;3.94;78.78;99214.23;1651150;86;21158;-76
2021/11/27 08:36:35;;;;;;;57.17;34.08;;;;;;;4.04;78.68;99212.31;1651317;86;21105;-75
2021/11/27 08:39:02;;;;;;;59.23;34.33;;;;;;;4.06;78.45;99213.23;1651408;86;21760;-75
2021/11/27 08:41:29;;;;;;;57.78;35.25;;;;;;;4.09;78.43;99217.63;1651615;86;21085;-75
2021/11/27 08:43:55;;;;;;;63.28;36.38;;;;;;;4.13;78.40;99219.89;1651682;86;21120;-76
2021/11/27 08:46:22;;;;;;;66.37;37.65;;;;;;;4.18;78.40;99217.00;1651638;86;21093;-75
2021/11/27 08:48:49;;;;;;;61.33;38.70;;;;;;;4.19;78.25;99216.17;1650395;85;21155;-76
2021/11/27 08:51:16;;;;;;;60.45;37.58;;;;;;;4.25;78.32;99224.13;1654053;85;21730;-75
2021/11/27 08:53:42;;;;;;;60.17;36.73;;;;;;;4.27;78.25;99220.72;1677355;84;21105;-75
2021/11/27 08:56:09;;;;;;;57.43;36.08;;;;;;;4.31;78.11;99227.31;1689575;84;21562;-76
2021/11/27 08:58:37;;;;;;;54.00;34.38;;;;;;;4.32;78.01;99224.75;1655915;84;21061;-76
2021/11/27 09:01:05;;;;;;;53.75;34.08;;;;;;;4.34;77.86;99224.80;1650012;86;21081;-76
2021/11/27 09:03:33;;;;;;;49.75;32.30;;;;;;;4.36;77.87;99229.20;1623111;86;21365;-76
2021/11/27 09:06:03;;;;;;;55.05;33.23;;;;;;;4.42;77.93;99220.66;1649824;86;21132;-76
2021/11/27 09:08:34;;;;;;;55.20;35.08;;;;;;;4.48;77.84;99221.66;1649396;86;21119;-76
2021/11/27 09:11:01;;;;;;;62.35;37.38;;;;;;;4.56;77.87;99223.59;1649045;86;21088;-76
2021/11/27 09:13:31;;;;;;;56.45;36.55;;;;;;;4.62;77.80;99227.23;1649325;86;21164;-75
2021/11/27 09:15:56;;;;;;;63.20;39.35;;;;;;;4.65;77.53;99230.33;1649110;86;22835;-76
2021/11/27 09:18:23;;;;;;;56.28;35.43;;;;;;;4.65;77.39;99225.11;1649681;86;21120;-76
2021/11/27 09:20:52;;;;;;;55.17;34.60;;;;;;;4.64;77.41;99219.03;1623281;86;21127;-76
2021/11/27 09:23:25;;;;;;;56.98;35.10;;;;;;;4.66;77.37;99224.28;1649716;86;21120;-76
2021/11/27 09:26:05;;;;;;;57.23;33.80;;;;;;;4.66;77.28;99216.03;1649952;86;21112;-75
2021/11/27 09:28:32;;;;;;;51.53;30.70;;;;;;;4.67;77.28;99221.72;1649642;86;21821;-75
2021/11/27 09:31:02;;;;;;;51.70;32.15;;;;;;;4.72;77.33;99223.13;1649895;86;21092;-76
2021/11/27 09:33:32;;;;;;;50.35;31.97;;;;;;;4.76;77.30;99219.73;1649791;86;21104;-75
2021/11/27 09:36:05;;;;;;;53.60;32.63;;;;;;;4.82;77.31;99229.03;1649988;86;21104;-76
2021/11/27 09:38:32;;;;;;;53.52;34.45;;;;;;;4.84;77.07;99222.52;1649865;86;21559;-76
2021/11/27 09:41:21;;;;;;;56.02;35.30;;;;;;;4.84;76.98;99225.13;1650024;86;21842;-76
2021/11/27 09:43:49;;;;;;;50.30;33.58;;;;;;;4.86;77.04;99230.85;1649583;86;21117;-76
2021/11/27 09:46:19;;;;;;;59.50;36.20;;;;;;;4.77;76.88;99218.91;1649974;86;21767;-76
2021/11/27 09:48:49;;;;;;;58.13;37.25;;;;;;;4.83;76.88;99227.30;1649827;86;21887;-76
2021/11/27 09:51:17;;;;;;;61.23;38.75;;;;;;;4.84;76.85;99239.47;1648766;86;21080;-76
2021/11/27 09:53:48;;;;;;;60.98;39.70;;;;;;;4.86;76.92;99228.64;1641109;87;22847;-76
2021/11/27 09:56:20;;;;;;;64.40;39.33;;;;;;;4.89;76.93;99226.55;1640348;86;21089;-76
2021/11/27 09:58:48;;;;;;;62.90;40.78;;;;;;;4.72;76.88;99192.27;1641796;87;22356;-83
2021/11/27 10:01:17;;;;;;;62.88;39.33;;;;;;;5.00;76.96;99232.90;1617631;87;21758;-76
2021/11/27 10:03:52;;;;;;;62.30;39.00;;;;;;;5.09;77.03;99231.80;1641438;87;21120;-76
2021/11/27 10:06:17;;;;;;;58.53;38.07;;;;;;;5.14;76.90;99235.38;1641298;87;21793;-76
2021/11/27 10:08:44;;;;;;;59.05;38.33;;;;;;;5.16;76.78;99231.09;1617776;87;21210;-75
2021/11/27 10:11:11;;;;;;;61.77;38.35;;;;;;;5.14;76.68;99237.11;1641235;87;21357;-76
2021/11/27 10:13:38;;;;;;;57.78;36.08;;;;;;;5.12;76.62;99233.16;1641279;87;21584;-76
2021/11/27 10:16:05;;;;;;;51.02;34.75;;;;;;;5.16;76.74;99236.31;1641301;87;21176;-76
2021/11/27 10:18:32;;;;;;;51.60;33.65;;;;;;;5.18;76.59;99241.14;1641360;86;21783;-76
2021/11/27 10:21:21;;;;;;;49.05;32.53;;;;;;;5.21;76.62;99237.70;1639688;87;21520;-76
2021/11/27 10:23:49;;;;;;;50.25;33.90;;;;;;;5.23;76.69;99238.19;1619574;87;21105;-76
2021/11/27 10:26:38;;;;;;;51.15;30.30;;;;;;;5.27;76.74;99237.83;1641416;86;21559;-76
2021/11/27 10:29:20;;;;;;;44.75;26.62;;;;;;;5.29;76.65;99227.44;1618630;87;21649;-76
2021/11/27 10:31:49;;;;;;;39.53;25.10;;;;;;;5.26;76.43;99230.44;1641524;86;21772;-76
2021/11/27 10:34:22;;;;;;;40.20;24.70;;;;;;;5.22;76.26;99229.05;1641887;87;21089;-75
2021/11/27 10:36:50;;;;;;;;;;;;;;;5.16;76.24;99228.89;1644131;86;21112;-75
2021/11/27 10:39:18;;;;;;;45.38;26.25;;;;;;;5.19;76.45;99235.48;1640202;87;21341;-82
2021/11/27 10:42:11;;;;;;;40.48;25.62;;;;;;;5.17;76.17;99222.41;1641855;87;21109;-82
2021/11/27 10:44:40;;;;;;;42.08;27.40;;;;;;;5.12;76.20;99226.63;1618968;87;21256;-83
2021/11/27 10:47:15;;;;;;;39.35;27.05;;;;;;;5.08;76.21;99227.84;1641924;87;21120;-82
2021/11/27 10:49:44;;;;;;;42.40;26.80;;;;;;;5.10;76.37;99228.33;1641951;84;22287;-77
2021/11/27 10:52:18;;;;;;;43.68;27.90;;;;;;;5.15;76.41;99234.97;1685687;84;21065;-75
2021/11/27 10:54:59;;;;;;;42.30;27.67;;;;;;;5.19;76.50;99243.31;1679362;85;21104;-75
2021/11/27 10:57:38;;;;;;;45.92;29.27;;;;;;;5.23;76.64;99249.05;1680099;85;21839;-83
2021/11/27 11:00:31;;;;;;;48.78;30.90;;;;;;;5.24;76.54;99248.22;1680901;83;21108;-83
2021/11/27 11:03:01;;;;;;;51.15;32.80;;;;;;;5.25;76.58;99249.97;1672279;84;21109;-83
2021/11/27 11:05:40;;;;;;;49.15;30.70;;;;;;;5.25;76.71;99249.56;1657725;85;21029;-82
2021/11/27 11:08:10;;;;;;;48.50;30.77;;;;;;;5.23;76.55;99249.92;1658934;85;21073;-83
2021/11/27 11:10:40;;;;;;;49.03;32.08;;;;;;;5.24;76.53;99256.05;1665778;84;21832;-76
2021/11/27 11:13:14;;;;;;;46.40;30.43;;;;;;;5.20;76.43;99252.89;1633927;84;21108;-77
2021/11/27 11:15:44;;;;;;;50.03;32.55;;;;;;;5.22;76.55;99257.74;1641638;86;21099;-84
2021/11/27 11:18:24;;;;;;;53.02;32.78;;;;;;;5.22;76.54;99265.14;1650851;85;21073;-84
2021/11/27 11:20:59;;;;;;;49.93;32.10;;;;;;;5.21;76.45;99260.75;1671608;85;21586;-82
2021/11/27 11:23:34;;;;;;;47.75;33.25;;;;;;;5.20;76.49;99256.80;1671550;85;21776;-82
2021/11/27 11:26:17;;;;;;;54.65;35.58;;;;;;;5.19;76.38;99260.27;1671681;85;21609;-82
2021/11/27 11:28:56;;;;;;;53.48;34.78;;;;;;;5.14;76.30;99251.45;1671626;85;21136;-82
2021/11/27 11:31:35;;;;;;;55.67;35.23;;;;;;;5.10;76.37;99255.72;1669294;85;22292;-77